Time;durP1;ratioP1;P1;durP2;ratioP2;P2;SDS_P1;SDS_P2;PMS_P1;PMS_P2;Temp;Humidity;BMP_temperature;BMP_pressure;BME280_temperature;BME280_humidity;BME280_pressure;Samples;Min_cycle;Max_cycle;Signal;HPM_P1;HPM_P2
2020/12/07 00:02:22;;;;;;;21.93;11.77;;;;;;;3.15;79.23;97739.00;3659998;81;21062;-73
2020/12/07 00:07:26;;;;;;;23.43;13.40;;;;;;;3.12;79.19;97734.76;3634266;81;21059;-73
2020/12/07 00:12:30;;;;;;;22.20;12.60;;;;;;;3.05;79.32;97721.28;3648454;81;21048;-74
2020/12/07 00:17:33;;;;;;;21.70;12.27;;;;;;;3.05;79.13;97726.56;3641788;81;20965;-74
2020/12/07 00:22:35;;;;;;;21.20;12.40;;;;;;;3.00;79.39;97727.88;3649892;81;21432;-73
2020/12/07 00:27:38;;;;;;;24.67;13.93;;;;;;;2.96;79.23;97726.03;3624577;81;21418;-73
2020/12/07 00:32:40;;;;;;;20.77;12.80;;;;;;;2.90;79.29;97737.92;3655429;80;21009;-73
2020/12/07 00:37:42;;;;;;;23.70;14.47;;;;;;;2.86;79.20;97731.58;3640453;80;21036;-73
2020/12/07 00:42:46;;;;;;;20.13;11.57;;;;;;;2.79;79.17;97728.39;3666712;80;21028;-73
2020/12/07 00:47:48;;;;;;;19.47;12.30;;;;;;;2.72;79.26;97727.86;3615855;81;21500;-73
2020/12/07 00:52:51;;;;;;;19.93;11.37;;;;;;;2.55;79.30;97716.98;3638157;81;21490;-72
2020/12/07 00:57:53;;;;;;;19.60;10.70;;;;;;;2.63;79.71;97706.95;3638955;81;21007;-74
2020/12/07 01:02:57;;;;;;;20.63;11.67;;;;;;;2.62;79.91;97705.38;3641971;81;21008;-74
2020/12/07 01:07:59;;;;;;;14.03;9.23;;;;;;;2.64;80.17;97679.45;3641917;80;21048;-74
2020/12/07 01:13:01;;;;;;;16.70;9.17;;;;;;;2.67;79.94;97671.80;3655246;81;21016;-74
2020/12/07 01:18:05;;;;;;;15.33;8.67;;;;;;;2.67;79.94;97671.80;3641819;81;21409;-74
2020/12/07 01:23:08;;;;;;;14.17;8.97;;;;;;;2.74;80.13;97670.20;3630000;81;21494;-72
2020/12/07 01:28:11;;;;;;;11.83;7.43;;;;;;;2.78;80.17;97665.97;3649634;80;20968;-73
2020/12/07 01:33:16;;;;;;;14.20;8.40;;;;;;;2.69;80.32;97642.45;3633328;81;20980;-73
2020/12/07 01:38:18;;;;;;;10.80;7.10;;;;;;;2.81;80.17;97655.39;3627699;81;21374;-73
2020/12/07 01:43:21;;;;;;;12.77;8.43;;;;;;;2.86;80.47;97647.47;3640505;80;21056;-73
2020/12/07 01:48:26;;;;;;;11.43;6.80;;;;;;;2.86;80.29;97631.05;3637900;81;21024;-73
2020/12/07 01:53:31;;;;;;;13.80;8.40;;;;;;;2.93;80.45;97642.70;3641255;81;21024;-73
2020/12/07 01:58:34;;;;;;;13.03;8.00;;;;;;;2.82;79.96;97627.35;3651484;81;21402;-73
2020/12/07 02:03:37;;;;;;;13.80;7.77;;;;;;;2.82;79.96;97627.35;3615754;80;20995;-73
2020/12/07 02:08:41;;;;;;;15.10;8.73;;;;;;;2.87;80.21;97616.00;3627663;81;21008;-73
2020/12/07 02:13:47;;;;;;;13.40;8.33;;;;;;;2.84;80.20;97609.38;3643943;80;21055;-73
2020/12/07 02:18:58;;;;;;;13.30;7.10;;;;;;;2.67;80.11;97599.59;3624123;82;21015;-73
2020/12/07 02:24:01;;;;;;;13.77;8.10;;;;;;;2.67;80.11;97599.59;3624040;80;20999;-73
2020/12/07 02:29:05;;;;;;;13.07;7.27;;;;;;;2.74;80.22;97615.98;3638663;79;21008;-72
2020/12/07 02:34:09;;;;;;;12.90;7.33;;;;;;;2.74;80.39;97626.56;3618995;81;21039;-72
2020/12/07 02:39:12;;;;;;;13.70;7.20;;;;;;;2.74;80.27;97635.81;3637280;81;21082;-73
2020/12/07 02:44:16;;;;;;;11.50;6.73;;;;;;;2.73;80.32;97633.72;3644920;81;21052;-73
2020/12/07 02:49:20;;;;;;;15.40;7.37;;;;;;;2.76;80.14;97636.88;3648552;80;20992;-73
2020/12/07 02:54:24;;;;;;;12.40;7.77;;;;;;;2.76;80.20;97637.69;3657680;80;21032;-73
2020/12/07 02:59:26;;;;;;;10.57;6.43;;;;;;;2.78;80.35;97618.36;3619718;82;21031;-73
2020/12/07 03:04:29;;;;;;;9.57;6.43;;;;;;;2.78;80.35;97618.36;3653550;81;21012;-73
2020/12/07 03:09:33;;;;;;;10.47;6.33;;;;;;;2.77;80.38;97598.28;3625565;81;20996;-72
2020/12/07 03:14:37;;;;;;;9.00;5.87;;;;;;;2.88;80.37;97609.63;3641614;80;21000;-74
2020/12/07 03:19:39;;;;;;;8.53;5.37;;;;;;;2.98;80.53;97606.98;3655099;81;21028;-74
2020/12/07 03:24:42;;;;;;;10.73;6.07;;;;;;;3.24;80.40;97606.92;3634867;81;21030;-74
2020/12/07 03:29:44;;;;;;;12.50;7.27;;;;;;;3.24;80.40;97606.92;3609111;79;21043;-73
2020/12/07 03:34:47;;;;;;;8.93;6.47;;;;;;;3.33;79.86;97619.06;3610059;80;21459;-73
2020/12/07 03:39:50;;;;;;;9.43;5.70;;;;;;;3.40;79.73;97603.69;3624081;82;21523;-73
2020/12/07 03:44:53;;;;;;;9.80;6.50;;;;;;;3.43;79.54;97606.59;3627924;80;21047;-73
2020/12/07 03:49:56;;;;;;;10.17;5.83;;;;;;;3.49;79.59;97610.56;3696531;79;21042;-73
2020/12/07 03:54:59;;;;;;;9.57;6.00;;;;;;;3.59;79.61;97613.94;3700625;80;21315;-73
2020/12/07 04:00:06;;;;;;;8.27;5.83;;;;;;;3.69;79.26;97622.92;3622139;81;20992;-73
2020/12/07 04:05:22;;;;;;;8.90;5.63;;;;;;;3.75;79.01;97619.20;3638356;81;21377;-73
2020/12/07 04:10:21;;;;;;;9.10;5.77;;;;;;;3.74;78.75;97621.05;3627367;81;20991;-72
2020/12/07 04:15:23;;;;;;;9.43;5.60;;;;;;;3.72;78.54;97628.48;3722437;79;21020;-72
2020/12/07 04:20:25;;;;;;;11.00;6.30;;;;;;;3.74;78.57;97625.56;3704346;80;21012;-73
2020/12/07 04:25:27;;;;;;;9.90;6.20;;;;;;;3.71;78.41;97624.24;3702982;80;21483;-73
2020/12/07 04:30:29;;;;;;;9.03;5.47;;;;;;;3.66;78.33;97614.20;3659010;80;20983;-73
2020/12/07 04:35:31;;;;;;;7.93;5.33;;;;;;;3.62;78.35;97616.59;3701927;80;20990;-72
2020/12/07 04:40:35;;;;;;;7.83;5.33;;;;;;;3.58;78.39;97619.52;3692808;80;21040;-73
2020/12/07 04:45:37;;;;;;;9.63;6.40;;;;;;;3.57;78.29;97617.41;3639769;80;21058;-73
2020/12/07 04:50:40;;;;;;;10.17;5.53;;;;;;;3.51;78.24;97615.85;3612120;82;21019;-73
2020/12/07 04:55:42;;;;;;;10.37;4.97;;;;;;;3.45;78.39;97620.89;3627447;81;21024;-74
2020/12/07 05:00:44;;;;;;;11.57;6.10;;;;;;;3.47;78.58;97624.08;3631020;80;20976;-73
2020/12/07 05:05:53;;;;;;;10.63;6.00;;;;;;;3.49;78.41;97622.48;3732539;78;21050;-73
2020/12/07 05:11:01;;;;;;;9.20;5.57;;;;;;;3.47;78.48;97627.23;3652071;80;20995;-73
2020/12/07 05:16:03;;;;;;;11.73;6.53;;;;;;;3.48;78.36;97636.77;3647301;81;21020;-73
2020/12/07 05:21:06;;;;;;;12.03;6.97;;;;;;;3.47;78.40;97628.56;3705720;80;20937;-73
2020/12/07 05:26:10;;;;;;;10.63;6.90;;;;;;;3.46;78.31;97626.45;3706533;78;21019;-73
2020/12/07 05:31:24;;;;;;;13.00;6.70;;;;;;;3.48;78.28;97619.56;3623577;81;21427;-73
2020/12/07 05:36:27;;;;;;;10.43;6.57;;;;;;;3.45;78.24;97622.21;3613913;82;21507;-73
2020/12/07 05:41:30;;;;;;;13.00;7.50;;;;;;;3.40;78.11;97644.20;3621543;81;21026;-73
2020/12/07 05:46:36;;;;;;;12.07;6.90;;;;;;;3.36;78.14;97649.78;3642728;81;20976;-73
2020/12/07 05:51:39;;;;;;;14.07;7.80;;;;;;;3.37;78.24;97665.93;3641555;81;21027;-73
2020/12/07 05:56:43;;;;;;;13.47;7.43;;;;;;;3.34;78.12;97659.05;3628665;81;21039;-74
2020/12/07 06:01:47;;;;;;;15.00;8.17;;;;;;;3.31;78.18;97651.64;3598895;81;21063;-74
2020/12/07 06:06:53;;;;;;;22.47;10.73;;;;;;;3.31;78.12;97658.27;3588503;82;20991;-74
2020/12/07 06:12:16;;;;;;;15.63;8.33;;;;;;;3.24;78.26;97679.16;3618428;81;20984;-74
2020/12/07 06:17:31;;;;;;;15.43;9.57;;;;;;;3.24;78.26;97679.16;3635971;81;20969;-73
2020/12/07 06:22:36;;;;;;;15.90;9.33;;;;;;;3.25;78.22;97683.41;3634949;81;21484;-74
2020/12/07 06:27:39;;;;;;;15.07;8.07;;;;;;;3.25;78.31;97692.67;3619856;81;21005;-73
2020/12/07 06:32:51;;;;;;;13.87;7.30;;;;;;;3.24;78.23;97688.43;3613492;82;21023;-74
2020/12/07 06:37:53;;;;;;;10.33;5.67;;;;;;;3.29;78.40;97685.52;3612533;80;21030;-74
2020/12/07 06:42:56;;;;;;;12.03;6.47;;;;;;;3.35;78.47;97681.81;3638967;81;21000;-73
2020/12/07 06:48:14;;;;;;;11.67;7.20;;;;;;;3.41;78.30;97680.73;3643427;80;21440;-74
2020/12/07 06:58:40;;;;;;;12.03;7.10;;;;;;;3.45;78.17;97707.48;3604331;80;39497;-75
2020/12/07 07:03:55;;;;;;;13.17;7.63;;;;;;;3.49;78.03;97697.40;3637216;80;21059;-72
2020/12/07 07:08:59;;;;;;;9.80;6.17;;;;;;;3.57;78.15;97707.45;3624805;80;21068;-74
2020/12/07 07:14:02;;;;;;;10.20;5.53;;;;;;;3.68;78.00;97702.92;3628415;80;21063;-74
2020/12/07 07:19:04;;;;;;;12.17;6.47;;;;;;;3.79;77.81;97714.27;3616192;80;21028;-75
2020/12/07 07:24:07;;;;;;;12.00;7.13;;;;;;;3.87;77.70;97708.41;3594393;81;21359;-75
2020/12/07 07:29:11;;;;;;;12.83;7.53;;;;;;;3.96;77.34;97719.27;3617681;80;21052;-72
2020/12/07 07:34:13;;;;;;;11.53;6.70;;;;;;;3.94;77.20;97723.52;3626944;81;21506;-73
2020/12/07 07:39:16;;;;;;;10.30;6.30;;;;;;;3.98;77.14;97734.89;3616586;81;21448;-73
2020/12/07 07:44:18;;;;;;;10.97;6.50;;;;;;;4.03;77.14;97731.69;3633157;81;21004;-74
2020/12/07 07:49:32;;;;;;;11.17;7.00;;;;;;;4.14;77.04;97729.80;3643328;81;21040;-74
2020/12/07 07:57:33;;;;;;;10.43;5.80;;;;;;;4.22;76.89;97735.84;3608497;81;21040;-73
2020/12/07 08:15:51;;;;;;;10.43;6.13;;;;;;;4.58;76.13;97738.31;3630488;80;21008;-77
2020/12/07 08:20:57;;;;;;;12.03;6.80;;;;;;;4.66;75.85;97734.83;3640674;81;21032;-72
2020/12/07 08:25:58;;;;;;;11.47;8.00;;;;;;;4.69;75.68;97751.54;3629263;81;21058;-74
2020/12/07 08:31:13;;;;;;;9.83;6.23;;;;;;;4.75;75.67;97753.86;3618465;80;21051;-73
2020/12/07 08:36:17;;;;;;;14.57;7.70;;;;;;;4.82;75.47;97758.09;3626934;81;21063;-72
2020/12/07 08:41:22;;;;;;;12.33;7.43;;;;;;;4.87;75.29;97768.14;3628961;80;21602;-71
2020/12/07 08:46:28;;;;;;;13.40;7.40;;;;;;;4.96;75.19;97782.94;3629286;80;21039;-72
2020/12/07 08:51:33;;;;;;;11.87;7.27;;;;;;;5.01;74.47;97766.17;3614490;81;21480;-72
2020/12/07 08:56:36;;;;;;;11.87;6.83;;;;;;;5.00;73.85;97747.36;3706487;78;21158;-73
2020/12/07 09:01:37;;;;;;;11.00;6.50;;;;;;;4.93;74.07;97759.61;3613988;80;21055;-74
2020/12/07 09:06:40;;;;;;;13.17;7.00;;;;;;;4.92;74.10;97769.41;3683567;80;21474;-73
2020/12/07 09:11:42;;;;;;;13.07;8.00;;;;;;;4.95;74.17;97783.48;3682491;80;21033;-77
2020/12/07 09:16:45;;;;;;;12.13;7.17;;;;;;;5.00;74.16;97773.90;3628606;80;21006;-73
2020/12/07 09:21:47;;;;;;;14.30;7.87;;;;;;;4.99;73.79;97771.77;3640781;80;21028;-73
2020/12/07 09:26:49;;;;;;;13.03;8.10;;;;;;;4.96;73.67;97755.84;3655770;79;21059;-74
2020/12/07 09:31:51;;;;;;;12.43;7.80;;;;;;;4.94;73.49;97746.05;3639182;79;21048;-73
2020/12/07 09:36:53;;;;;;;12.97;7.70;;;;;;;4.87;73.40;97740.78;3694034;79;21032;-73
2020/12/07 09:41:57;;;;;;;10.20;6.67;;;;;;;4.87;73.53;97730.98;3629022;79;21027;-73
2020/12/07 09:46:59;;;;;;;12.43;6.97;;;;;;;4.86;73.52;97734.70;3627314;79;21389;-74
2020/12/07 09:52:01;;;;;;;12.70;7.53;;;;;;;4.87;73.58;97744.25;3650916;80;21355;-75
2020/12/07 09:57:05;;;;;;;10.47;6.77;;;;;;;4.91;73.77;97756.41;3650896;80;21043;-75
2020/12/07 10:02:09;;;;;;;13.40;8.17;;;;;;;4.94;73.66;97765.18;3698580;78;21018;-74
2020/12/07 10:07:12;;;;;;;14.83;8.60;;;;;;;4.97;73.66;97755.33;3636626;80;20991;-74
2020/12/07 10:12:14;;;;;;;13.83;7.20;;;;;;;5.03;73.92;97759.52;3636357;80;21019;-74
2020/12/07 10:17:16;;;;;;;13.50;7.50;;;;;;;5.11;73.81;97772.75;3642549;80;21059;-74
2020/12/07 10:22:18;;;;;;;14.97;8.77;;;;;;;5.19;73.65;97781.46;3624903;80;21364;-73
2020/12/07 10:27:20;;;;;;;11.00;7.17;;;;;;;5.28;73.77;97795.70;3688000;80;21455;-73
2020/12/07 10:32:22;;;;;;;13.70;9.43;;;;;;;5.38;73.69;97794.05;3661488;79;20940;-75
2020/12/07 10:37:25;;;;;;;17.60;10.00;;;;;;;5.49;73.68;97780.39;3690624;80;20987;-73
2020/12/07 10:42:27;;;;;;;17.70;10.20;;;;;;;5.58;73.38;97785.11;3681364;80;21078;-73
2020/12/07 10:47:29;;;;;;;16.93;10.50;;;;;;;5.65;73.28;97783.73;3703062;78;20999;-74
2020/12/07 10:52:32;;;;;;;14.60;8.77;;;;;;;5.67;72.94;97780.78;3681982;78;21059;-74
2020/12/07 10:57:38;;;;;;;15.53;8.97;;;;;;;5.70;72.86;97790.85;3691023;78;21007;-73
2020/12/07 11:02:41;;;;;;;14.37;8.97;;;;;;;5.74;72.67;97802.50;3706293;78;21050;-73
2020/12/07 11:07:46;;;;;;;13.80;8.80;;;;;;;5.79;72.69;97817.60;3681519;80;21426;-73
2020/12/07 11:12:51;;;;;;;14.60;8.97;;;;;;;5.85;72.48;97807.20;3657906;79;21279;-73
2020/12/07 11:17:52;;;;;;;15.53;8.63;;;;;;;5.90;72.11;97789.84;3652446;79;21039;-74
2020/12/07 11:22:54;;;;;;;14.70;9.13;;;;;;;5.88;72.12;97785.36;3647336;79;21058;-72
2020/12/07 11:27:56;;;;;;;15.57;9.53;;;;;;;5.92;72.09;97797.56;3676160;78;21039;-73
2020/12/07 11:32:58;;;;;;;15.43;8.27;;;;;;;5.99;72.30;97798.83;3701138;80;21039;-74
2020/12/07 11:38:23;;;;;;;14.37;8.90;;;;;;;6.06;72.09;97799.83;3692856;79;21324;-72
2020/12/07 11:48:25;;;;;;;15.47;9.20;;;;;;;6.07;71.75;97793.97;3623973;80;21483;-73
2020/12/07 11:53:27;;;;;;;12.67;7.93;;;;;;;6.04;71.70;97784.69;3653027;79;21033;-73
2020/12/07 11:58:29;;;;;;;12.33;7.80;;;;;;;6.08;71.79;97788.36;3620955;79;21015;-73
2020/12/07 12:03:31;;;;;;;19.70;9.13;;;;;;;6.08;71.82;97784.38;3626130;80;21102;-73
2020/12/07 12:08:33;;;;;;;12.57;7.97;;;;;;;6.13;71.83;97784.33;3638310;80;21533;-74
2020/12/07 12:13:35;;;;;;;19.20;11.03;;;;;;;6.20;71.74;97784.52;3638430;79;21031;-74
2020/12/07 12:18:37;;;;;;;16.33;8.90;;;;;;;6.25;71.75;97783.91;3637080;79;21447;-74
2020/12/07 12:23:39;;;;;;;14.43;8.90;;;;;;;6.25;71.55;97792.44;3700367;78;21558;-76
2020/12/07 12:28:43;;;;;;;15.20;9.87;;;;;;;6.21;71.48;97787.44;3679027;78;21060;-75
2020/12/07 12:33:45;;;;;;;17.00;10.27;;;;;;;6.17;71.37;97776.59;3679685;78;21028;-75
2020/12/07 12:38:50;;;;;;;17.57;10.67;;;;;;;6.12;71.25;97778.75;3649324;80;21007;-75
2020/12/07 12:43:52;;;;;;;15.90;9.37;;;;;;;6.09;71.27;97775.87;3629914;80;21075;-74
2020/12/07 12:48:55;;;;;;;18.87;10.00;;;;;;;6.07;71.42;97772.70;3630233;79;21031;-75
2020/12/07 12:53:59;;;;;;;17.40;10.63;;;;;;;6.05;71.33;97774.86;3652336;80;21117;-75
2020/12/07 12:59:02;;;;;;;18.37;10.27;;;;;;;6.03;71.38;97783.13;3640175;80;21026;-76
2020/12/07 13:04:06;;;;;;;20.27;12.60;;;;;;;6.06;71.52;97781.73;3656392;79;21534;-75
2020/12/07 13:09:08;;;;;;;23.67;14.20;;;;;;;6.09;71.23;97774.55;3656542;80;21019;-75
2020/12/07 13:14:10;;;;;;;19.00;11.50;;;;;;;6.06;71.34;97764.45;3662076;80;21051;-75
2020/12/07 13:19:15;;;;;;;17.60;11.07;;;;;;;5.97;71.18;97770.91;3624929;80;21506;-75
2020/12/07 13:24:28;;;;;;;17.00;10.40;;;;;;;5.91;71.34;97751.56;3637067;79;21015;-73
2020/12/07 13:29:21;;;;;;;16.83;10.60;;;;;;;5.89;71.36;97751.59;3663432;79;21038;-73
2020/12/07 13:34:23;;;;;;;21.80;12.27;;;;;;;5.85;71.55;97761.20;3654138;79;20997;-73
2020/12/07 13:39:25;;;;;;;17.97;10.50;;;;;;;5.85;71.56;97769.17;3654951;78;21032;-73
2020/12/07 13:44:28;;;;;;;27.40;15.00;;;;;;;5.86;71.53;97778.19;3640050;79;21054;-75
2020/12/07 13:49:31;;;;;;;23.10;13.53;;;;;;;5.85;71.45;97770.50;3630889;81;21833;-73
2020/12/07 13:54:35;;;;;;;25.70;13.60;;;;;;;5.91;71.58;97778.15;3628926;80;20996;-75
2020/12/07 13:59:37;;;;;;;19.33;12.47;;;;;;;5.93;71.55;97789.83;3618254;80;21055;-74
2020/12/07 14:04:46;;;;;;;21.60;12.23;;;;;;;5.95;71.35;97796.45;3626228;80;21582;-74
2020/12/07 14:09:43;;;;;;;25.33;14.53;;;;;;;5.92;71.40;97804.99;3615797;80;21011;-77
2020/12/07 14:14:48;;;;;;;26.23;14.67;;;;;;;5.94;71.51;97800.72;3654981;79;21414;-77
2020/12/07 14:25:15;;;;;;;25.37;14.37;;;;;;;5.98;71.56;97811.08;3652080;80;21037;-76
2020/12/07 14:40:40;;;;;;;24.73;15.63;;;;;;;5.83;71.72;97817.30;3625780;80;21055;-77
2020/12/07 14:45:59;;;;;;;31.40;17.83;;;;;;;5.80;71.83;97820.52;3643056;79;20992;-73
2020/12/07 14:50:59;;;;;;;28.63;15.60;;;;;;;5.81;71.93;97830.09;3642160;79;21031;-76
2020/12/07 14:56:17;;;;;;;26.57;16.17;;;;;;;5.86;72.06;97835.89;3633484;81;21059;-76
2020/12/07 15:06:43;;;;;;;29.27;16.17;;;;;;;5.98;72.06;97834.46;3700929;78;29344;-76
2020/12/07 15:16:55;;;;;;;33.70;17.90;;;;;;;5.97;71.96;97831.56;3580745;81;21483;-75
2020/12/07 15:21:57;;;;;;;34.87;18.30;;;;;;;5.98;72.01;97847.75;3583914;81;21040;-75
2020/12/07 15:26:59;;;;;;;32.97;18.53;;;;;;;5.94;71.95;97850.69;3658249;79;21474;-75
2020/12/07 15:32:02;;;;;;;29.10;17.90;;;;;;;5.93;71.91;97862.41;3620444;81;21050;-75
2020/12/07 15:37:04;;;;;;;31.83;18.27;;;;;;;5.89;71.96;97862.72;3593564;82;21030;-75
2020/12/07 15:42:09;;;;;;;38.00;20.47;;;;;;;5.91;72.08;97857.11;3678416;79;21024;-76
2020/12/07 15:47:11;;;;;;;35.03;16.97;;;;;;;5.86;72.10;97845.19;3613725;81;21012;-75
2020/12/07 15:52:14;;;;;;;33.33;18.33;;;;;;;5.75;72.26;97847.14;3678523;78;21020;-75
2020/12/07 15:57:16;;;;;;;31.27;18.03;;;;;;;5.64;72.41;97852.55;3683629;79;21047;-75
2020/12/07 16:02:20;;;;;;;30.13;16.27;;;;;;;5.64;72.60;97859.73;3624610;81;21080;-75
2020/12/07 16:07:23;;;;;;;35.37;17.87;;;;;;;5.59;72.52;97857.89;3534468;82;20996;-74
2020/12/07 16:12:25;;;;;;;29.63;15.40;;;;;;;5.57;72.60;97861.38;3549806;83;21033;-75
2020/12/07 16:17:28;;;;;;;25.23;13.47;;;;;;;5.48;72.52;97871.81;3548934;82;20978;-74
2020/12/07 16:22:29;;;;;;;24.80;15.03;;;;;;;5.45;72.64;97876.87;3548834;82;20981;-74
2020/12/07 16:27:34;;;;;;;25.33;14.07;;;;;;;5.41;72.59;97876.61;3548790;83;21057;-76
2020/12/07 16:32:37;;;;;;;23.70;13.87;;;;;;;5.34;72.70;97862.86;3548839;82;21465;-75
2020/12/07 16:37:39;;;;;;;29.17;15.23;;;;;;;5.32;72.78;97867.66;3549036;82;20993;-76
2020/12/07 16:42:41;;;;;;;23.83;12.73;;;;;;;5.28;72.84;97878.03;3548870;83;21056;-75
2020/12/07 16:47:45;;;;;;;22.50;13.73;;;;;;;5.26;72.86;97880.19;3548745;82;21007;-76
2020/12/07 16:52:49;;;;;;;24.07;14.50;;;;;;;5.27;72.84;97879.12;3565142;82;21025;-75
2020/12/07 16:57:51;;;;;;;25.17;14.93;;;;;;;5.24;72.77;97892.92;3644390;81;21169;-76
2020/12/07 17:02:53;;;;;;;27.30;15.50;;;;;;;5.26;72.76;97893.98;3649221;80;21024;-75
2020/12/07 17:07:54;;;;;;;28.73;16.97;;;;;;;5.26;72.64;97886.83;3585795;82;21060;-76
2020/12/07 17:12:57;;;;;;;31.90;18.63;;;;;;;5.18;72.52;97886.07;3692471;80;21048;-75
2020/12/07 17:17:59;;;;;;;31.73;17.10;;;;;;;5.17;72.56;97895.09;3585489;82;21028;-75
2020/12/07 17:23:02;;;;;;;27.43;15.73;;;;;;;5.17;72.64;97905.72;3582348;83;21052;-75
2020/12/07 17:28:04;;;;;;;27.53;15.07;;;;;;;5.15;72.56;97894.59;3699313;80;20996;-76
2020/12/07 17:33:06;;;;;;;34.60;19.13;;;;;;;5.17;72.52;97900.95;3585617;82;21518;-75
2020/12/07 17:38:07;;;;;;;34.73;17.43;;;;;;;5.16;72.48;97900.14;3633937;81;20988;-76
2020/12/07 17:43:09;;;;;;;43.70;22.03;;;;;;;5.14;72.50;97900.95;3633891;81;21425;-75
2020/12/07 17:48:12;;;;;;;43.83;23.30;;;;;;;5.10;72.48;97909.21;3633606;81;21064;-75
2020/12/07 17:53:18;;;;;;;32.90;18.33;;;;;;;5.11;72.70;97916.90;3608702;81;20990;-75
2020/12/07 17:58:20;;;;;;;35.20;17.40;;;;;;;5.11;72.89;97913.46;3712733;80;21436;-76
2020/12/07 18:03:22;;;;;;;28.97;16.90;;;;;;;5.05;72.74;97915.34;3758965;78;21053;-76
2020/12/07 18:08:25;;;;;;;32.50;18.27;;;;;;;5.01;72.86;97915.63;3723808;79;20957;-75
2020/12/07 18:13:27;;;;;;;31.73;17.27;;;;;;;4.96;72.99;97911.12;3723636;79;20974;-76
2020/12/07 18:18:29;;;;;;;33.67;18.17;;;;;;;4.89;73.02;97899.22;3723610;79;21167;-75
2020/12/07 18:23:32;;;;;;;36.77;19.10;;;;;;;4.79;73.23;97892.10;3703488;79;21337;-75
2020/12/07 18:28:34;;;;;;;30.27;17.00;;;;;;;4.66;73.54;97890.02;3642099;79;21493;-75
2020/12/07 18:33:36;;;;;;;42.27;21.77;;;;;;;4.58;73.74;97887.41;3595440;81;20938;-75
2020/12/07 18:38:38;;;;;;;31.97;16.97;;;;;;;4.49;73.81;97890.34;3595502;82;21037;-75
2020/12/07 18:43:41;;;;;;;37.27;19.97;;;;;;;4.41;73.96;97890.37;3595286;82;21033;-76
2020/12/07 18:48:43;;;;;;;31.47;17.43;;;;;;;4.37;74.03;97884.02;3595496;82;21005;-76
2020/12/07 18:53:45;;;;;;;38.87;19.63;;;;;;;4.34;74.21;97882.70;3700628;79;20969;-76
2020/12/07 18:58:47;;;;;;;36.13;20.13;;;;;;;4.32;74.38;97880.05;3723567;79;20918;-76
2020/12/07 19:03:49;;;;;;;34.70;18.40;;;;;;;4.30;74.37;97882.97;3695239;79;21017;-75
2020/12/07 19:08:51;;;;;;;34.80;19.47;;;;;;;4.30;74.39;97883.52;3608158;81;21033;-75
2020/12/07 19:13:53;;;;;;;34.63;18.43;;;;;;;4.30;74.39;97891.47;3633572;81;21398;-75
2020/12/07 19:18:55;;;;;;;40.77;21.60;;;;;;;4.33;74.37;97894.91;3633703;81;20946;-75
2020/12/07 19:23:57;;;;;;;45.37;23.13;;;;;;;4.30;74.15;97898.88;3564943;83;21087;-74
2020/12/07 19:28:59;;;;;;;42.50;22.77;;;;;;;4.26;74.15;97895.95;3654586;81;21049;-75
2020/12/07 19:34:02;;;;;;;40.07;21.10;;;;;;;4.27;74.30;97906.05;3654402;81;21049;-75
2020/12/07 19:39:05;;;;;;;42.47;23.33;;;;;;;4.23;74.27;97902.34;3654294;81;21398;-75
2020/12/07 19:44:07;;;;;;;41.30;21.00;;;;;;;4.18;74.29;97904.45;3654342;81;21554;-76
2020/12/07 19:49:10;;;;;;;48.60;25.30;;;;;;;4.18;74.50;97915.05;3626657;81;21421;-75
2020/12/07 19:54:17;;;;;;;47.10;24.47;;;;;;;4.18;74.44;97916.38;3709668;79;20994;-75
2020/12/07 19:59:19;;;;;;;40.93;22.43;;;;;;;4.18;74.43;97903.13;3719847;79;21441;-75
2020/12/07 20:04:21;;;;;;;40.60;22.77;;;;;;;4.17;74.69;97902.88;3691619;79;21032;-75
2020/12/07 20:09:23;;;;;;;43.03;23.30;;;;;;;4.19;74.85;97909.23;3692297;80;20969;-75
2020/12/07 20:14:25;;;;;;;39.30;21.27;;;;;;;4.22;74.75;97914.00;3692129;80;21055;-75
2020/12/07 20:19:29;;;;;;;48.53;25.40;;;;;;;4.20;74.66;97918.25;3692178;80;20988;-75
2020/12/07 20:24:34;;;;;;;43.00;22.33;;;;;;;4.20;74.70;97923.55;3691800;80;20989;-75
2020/12/07 20:29:36;;;;;;;46.80;25.27;;;;;;;4.17;74.80;97922.77;3684101;79;20969;-76
2020/12/07 20:34:40;;;;;;;50.93;27.23;;;;;;;4.13;74.72;97923.55;3682186;80;21124;-76
2020/12/07 20:39:43;;;;;;;41.20;21.90;;;;;;;4.14;74.85;97928.61;3605335;82;21025;-75
2020/12/07 20:44:45;;;;;;;48.03;26.07;;;;;;;4.09;74.83;97944.50;3682315;80;21314;-75
2020/12/07 20:49:48;;;;;;;62.90;31.00;;;;;;;4.04;74.87;97947.15;3610869;80;21029;-76
2020/12/07 20:54:50;;;;;;;60.80;30.03;;;;;;;3.99;74.90;97955.91;3756506;79;20976;-76
2020/12/07 20:59:53;;;;;;;49.03;26.07;;;;;;;4.04;75.05;97957.75;3758512;79;21017;-75
2020/12/07 21:04:55;;;;;;;43.53;24.67;;;;;;;4.07;75.14;97955.38;3717989;78;21040;-75
2020/12/07 21:09:58;;;;;;;52.03;27.87;;;;;;;4.08;75.13;97952.97;3685207;80;21024;-76
2020/12/07 21:15:00;;;;;;;45.17;26.43;;;;;;;4.11;75.26;97949.81;3685167;80;21001;-76
2020/12/07 21:20:03;;;;;;;47.10;24.83;;;;;;;4.10;75.35;97950.08;3685114;80;21033;-75
2020/12/07 21:25:05;;;;;;;52.83;29.10;;;;;;;4.08;75.46;97954.83;3685209;80;20941;-74
2020/12/07 21:30:07;;;;;;;56.13;29.37;;;;;;;4.07;75.41;97956.70;3685162;80;21029;-76
2020/12/07 21:35:13;;;;;;;41.97;22.43;;;;;;;4.07;75.42;97963.84;3685277;80;21028;-75
2020/12/07 21:40:15;;;;;;;47.80;27.50;;;;;;;4.05;75.66;97952.18;3685078;80;20972;-75
2020/12/07 21:45:18;;;;;;;42.00;24.07;;;;;;;4.00;75.58;97949.55;3684968;80;21037;-74
2020/12/07 21:50:20;;;;;;;41.53;22.57;;;;;;;3.86;75.75;97943.98;3689418;79;20962;-76
2020/12/07 21:55:22;;;;;;;44.63;25.10;;;;;;;3.78;75.99;97945.83;3751408;79;21020;-76
2020/12/07 22:00:24;;;;;;;41.03;21.20;;;;;;;3.68;76.14;97944.48;3751365;79;20957;-75
2020/12/07 22:05:27;;;;;;;43.50;25.77;;;;;;;3.58;76.51;97938.13;3706763;79;20981;-75
2020/12/07 22:10:29;;;;;;;45.93;23.60;;;;;;;3.50;76.41;97950.55;3691910;80;21033;-75
2020/12/07 22:15:31;;;;;;;51.53;27.27;;;;;;;3.45;76.74;97945.78;3691749;80;21008;-75
2020/12/07 22:20:35;;;;;;;43.20;24.17;;;;;;;3.39;76.81;97947.62;3691776;79;21012;-75
2020/12/07 22:25:41;;;;;;;48.10;24.80;;;;;;;3.41;77.08;97941.52;3691328;80;21060;-75
2020/12/07 22:30:44;;;;;;;44.33;22.70;;;;;;;3.45;77.17;97949.75;3661348;80;21473;-75
2020/12/07 22:35:45;;;;;;;56.07;29.13;;;;;;;3.41;76.93;97944.98;3681959;80;21052;-75
2020/12/07 22:40:50;;;;;;;50.67;27.10;;;;;;;3.37;77.10;97951.05;3681929;80;21041;-75
2020/12/07 22:45:52;;;;;;;57.33;26.60;;;;;;;3.26;77.07;97954.21;3681962;80;21307;-75
2020/12/07 22:50:54;;;;;;;55.00;26.53;;;;;;;3.22;77.44;97953.14;3697208;79;20977;-75
2020/12/07 22:55:56;;;;;;;44.53;22.00;;;;;;;3.20;77.35;97944.11;3758139;78;20988;-76
2020/12/07 23:00:59;;;;;;;52.17;27.83;;;;;;;3.12;77.43;97947.80;3758331;79;21028;-74
2020/12/07 23:06:01;;;;;;;46.33;22.73;;;;;;;3.06;77.58;97944.33;3705343;78;21435;-74
2020/12/07 23:11:05;;;;;;;41.03;20.67;;;;;;;2.97;77.67;97956.48;3691735;80;21040;-75
2020/12/07 23:16:08;;;;;;;42.67;22.77;;;;;;;2.90;77.75;97944.28;3691748;80;21108;-75
2020/12/07 23:21:10;;;;;;;45.43;22.97;;;;;;;2.90;77.75;97944.28;3691639;80;20980;-75
2020/12/07 23:26:15;;;;;;;41.87;21.43;;;;;;;2.71;77.98;97923.30;3690481;80;21032;-75
2020/12/07 23:31:18;;;;;;;50.27;26.17;;;;;;;2.71;77.98;97923.30;3605426;81;21033;-75
2020/12/07 23:36:20;;;;;;;42.57;21.23;;;;;;;2.73;78.00;97941.83;3682290;80;20992;-75
2020/12/07 23:41:22;;;;;;;35.83;18.97;;;;;;;2.68;78.22;97934.39;3682159;80;21044;-74
2020/12/07 23:46:24;;;;;;;33.80;19.13;;;;;;;2.64;78.19;97934.09;3682118;80;21000;-75
2020/12/07 23:51:27;;;;;;;33.97;19.37;;;;;;;2.58;78.23;97934.35;3638069;79;21493;-75
2020/12/07 23:56:29;;;;;;;38.40;21.20;;;;;;;2.58;78.23;97940.96;3758333;79;21001;-75
